sensor_id;sensor_type;location;lat;lon;timestamp;P1;durP1;ratioP1;P2;durP2;ratioP2
29534;SDS011;72082;52.650;8.116;2023-08-20T00:01:29;3.20;;;2.90;;
29534;SDS011;72082;52.650;8.116;2023-08-20T00:03:55;2.70;;;2.37;;
29534;SDS011;72082;52.650;8.116;2023-08-20T00:06:21;2.63;;;2.47;;
29534;SDS011;72082;52.650;8.116;2023-08-20T00:08:47;3.43;;;2.80;;
29534;SDS011;72082;52.650;8.116;2023-08-20T00:11:13;7.07;;;3.67;;
29534;SDS011;72082;52.650;8.116;2023-08-20T00:13:38;3.40;;;2.60;;
29534;SDS011;72082;52.650;8.116;2023-08-20T00:16:04;4.00;;;3.60;;
29534;SDS011;72082;52.650;8.116;2023-08-20T00:18:30;22.90;;;3.23;;
29534;SDS011;72082;52.650;8.116;2023-08-20T00:20:55;3.23;;;3.00;;
29534;SDS011;72082;52.650;8.116;2023-08-20T00:23:21;4.33;;;3.80;;
29534;SDS011;72082;52.650;8.116;2023-08-20T00:25:46;3.90;;;2.80;;
29534;SDS011;72082;52.650;8.116;2023-08-20T00:28:12;4.57;;;3.73;;
29534;SDS011;72082;52.650;8.116;2023-08-20T00:30:37;3.30;;;2.60;;
29534;SDS011;72082;52.650;8.116;2023-08-20T00:33:02;2.70;;;2.50;;
29534;SDS011;72082;52.650;8.116;2023-08-20T00:35:28;1.90;;;1.80;;
29534;SDS011;72082;52.650;8.116;2023-08-20T00:37:53;4.83;;;2.83;;
29534;SDS011;72082;52.650;8.116;2023-08-20T00:40:18;3.70;;;2.53;;
29534;SDS011;72082;52.650;8.116;2023-08-20T00:42:44;7.33;;;3.03;;
29534;SDS011;72082;52.650;8.116;2023-08-20T00:45:09;2.20;;;2.10;;
29534;SDS011;72082;52.650;8.116;2023-08-20T00:47:34;2.97;;;2.50;;
29534;SDS011;72082;52.650;8.116;2023-08-20T00:50:00;2.60;;;2.40;;
29534;SDS011;72082;52.650;8.116;2023-08-20T00:52:26;3.90;;;3.17;;
29534;SDS011;72082;52.650;8.116;2023-08-20T00:54:51;15.77;;;2.30;;
29534;SDS011;72082;52.650;8.116;2023-08-20T00:57:18;2.47;;;2.20;;
29534;SDS011;72082;52.650;8.116;2023-08-20T00:59:43;3.00;;;2.70;;
29534;SDS011;72082;52.650;8.116;2023-08-20T01:02:12;1.97;;;1.87;;
29534;SDS011;72082;52.650;8.116;2023-08-20T01:04:37;3.47;;;2.47;;
29534;SDS011;72082;52.650;8.116;2023-08-20T01:07:04;5.17;;;2.10;;
29534;SDS011;72082;52.650;8.116;2023-08-20T01:09:50;3.60;;;2.77;;
29534;SDS011;72082;52.650;8.116;2023-08-20T01:12:21;2.40;;;2.30;;
29534;SDS011;72082;52.650;8.116;2023-08-20T01:14:47;3.50;;;3.20;;
29534;SDS011;72082;52.650;8.116;2023-08-20T01:17:13;6.37;;;3.63;;
29534;SDS011;72082;52.650;8.116;2023-08-20T01:19:38;5.43;;;3.00;;
29534;SDS011;72082;52.650;8.116;2023-08-20T01:24:54;3.33;;;2.90;;
29534;SDS011;72082;52.650;8.116;2023-08-20T01:30:25;50.03;;;4.70;;
29534;SDS011;72082;52.650;8.116;2023-08-20T01:32:52;2.70;;;2.33;;
29534;SDS011;72082;52.650;8.116;2023-08-20T01:35:18;3.20;;;2.97;;
29534;SDS011;72082;52.650;8.116;2023-08-20T01:37:43;2.33;;;2.23;;
29534;SDS011;72082;52.650;8.116;2023-08-20T01:40:09;3.50;;;3.20;;
29534;SDS011;72082;52.650;8.116;2023-08-20T01:42:34;5.30;;;3.50;;
29534;SDS011;72082;52.650;8.116;2023-08-20T01:45:00;3.60;;;2.67;;
29534;SDS011;72082;52.650;8.116;2023-08-20T01:47:25;7.43;;;2.53;;
29534;SDS011;72082;52.650;8.116;2023-08-20T01:49:50;11.00;;;3.10;;
29534;SDS011;72082;52.650;8.116;2023-08-20T01:52:15;3.83;;;2.97;;
29534;SDS011;72082;52.650;8.116;2023-08-20T01:54:41;6.50;;;3.23;;
29534;SDS011;72082;52.650;8.116;2023-08-20T01:57:06;4.70;;;2.93;;
29534;SDS011;72082;52.650;8.116;2023-08-20T01:59:31;3.10;;;2.40;;
29534;SDS011;72082;52.650;8.116;2023-08-20T02:01:56;2.60;;;2.40;;
29534;SDS011;72082;52.650;8.116;2023-08-20T02:04:21;2.97;;;2.77;;
29534;SDS011;72082;52.650;8.116;2023-08-20T02:06:47;8.50;;;2.70;;
29534;SDS011;72082;52.650;8.116;2023-08-20T02:09:12;3.30;;;2.50;;
29534;SDS011;72082;52.650;8.116;2023-08-20T02:11:37;6.77;;;4.50;;
29534;SDS011;72082;52.650;8.116;2023-08-20T02:14:02;3.20;;;2.63;;
29534;SDS011;72082;52.650;8.116;2023-08-20T02:16:28;11.73;;;2.37;;
29534;SDS011;72082;52.650;8.116;2023-08-20T02:18:53;2.20;;;2.10;;
29534;SDS011;72082;52.650;8.116;2023-08-20T02:21:18;2.80;;;2.60;;
29534;SDS011;72082;52.650;8.116;2023-08-20T02:23:43;2.00;;;1.80;;
29534;SDS011;72082;52.650;8.116;2023-08-20T02:26:09;3.40;;;2.73;;
29534;SDS011;72082;52.650;8.116;2023-08-20T02:28:34;2.73;;;2.60;;
29534;SDS011;72082;52.650;8.116;2023-08-20T02:31:03;3.37;;;2.20;;
29534;SDS011;72082;52.650;8.116;2023-08-20T02:33:29;2.43;;;2.33;;
29534;SDS011;72082;52.650;8.116;2023-08-20T02:35:54;2.17;;;2.03;;
29534;SDS011;72082;52.650;8.116;2023-08-20T02:38:19;4.10;;;1.90;;
29534;SDS011;72082;52.650;8.116;2023-08-20T02:40:45;3.40;;;2.77;;
29534;SDS011;72082;52.650;8.116;2023-08-20T02:43:10;2.90;;;1.30;;
29534;SDS011;72082;52.650;8.116;2023-08-20T02:45:41;26.63;;;3.53;;
29534;SDS011;72082;52.650;8.116;2023-08-20T02:48:07;2.70;;;2.23;;
29534;SDS011;72082;52.650;8.116;2023-08-20T02:50:32;1.80;;;1.70;;
29534;SDS011;72082;52.650;8.116;2023-08-20T02:52:57;2.30;;;2.07;;
29534;SDS011;72082;52.650;8.116;2023-08-20T02:55:22;5.23;;;3.20;;
29534;SDS011;72082;52.650;8.116;2023-08-20T02:57:48;5.27;;;1.93;;
29534;SDS011;72082;52.650;8.116;2023-08-20T03:00:13;4.40;;;3.20;;
29534;SDS011;72082;52.650;8.116;2023-08-20T03:02:39;3.80;;;1.87;;
29534;SDS011;72082;52.650;8.116;2023-08-20T03:05:04;2.67;;;2.47;;
29534;SDS011;72082;52.650;8.116;2023-08-20T03:07:29;7.93;;;3.17;;
29534;SDS011;72082;52.650;8.116;2023-08-20T03:09:55;6.13;;;2.47;;
29534;SDS011;72082;52.650;8.116;2023-08-20T03:12:20;2.40;;;2.20;;
29534;SDS011;72082;52.650;8.116;2023-08-20T03:14:45;3.13;;;2.13;;
29534;SDS011;72082;52.650;8.116;2023-08-20T03:17:10;2.27;;;2.17;;
29534;SDS011;72082;52.650;8.116;2023-08-20T03:19:35;2.20;;;2.07;;
29534;SDS011;72082;52.650;8.116;2023-08-20T03:22:01;2.10;;;1.97;;
29534;SDS011;72082;52.650;8.116;2023-08-20T03:24:26;2.63;;;2.43;;
29534;SDS011;72082;52.650;8.116;2023-08-20T03:26:51;3.93;;;2.70;;
29534;SDS011;72082;52.650;8.116;2023-08-20T03:29:16;3.67;;;2.63;;
29534;SDS011;72082;52.650;8.116;2023-08-20T03:31:42;2.90;;;2.57;;
29534;SDS011;72082;52.650;8.116;2023-08-20T03:34:07;2.97;;;2.77;;
29534;SDS011;72082;52.650;8.116;2023-08-20T03:36:32;13.73;;;2.03;;
29534;SDS011;72082;52.650;8.116;2023-08-20T03:38:57;2.20;;;2.00;;
29534;SDS011;72082;52.650;8.116;2023-08-20T03:41:23;8.37;;;2.97;;
29534;SDS011;72082;52.650;8.116;2023-08-20T03:43:48;2.73;;;2.53;;
29534;SDS011;72082;52.650;8.116;2023-08-20T03:46:13;5.27;;;2.70;;
29534;SDS011;72082;52.650;8.116;2023-08-20T03:48:38;4.60;;;2.60;;
29534;SDS011;72082;52.650;8.116;2023-08-20T03:51:03;7.43;;;4.63;;
29534;SDS011;72082;52.650;8.116;2023-08-20T03:53:29;3.73;;;2.83;;
29534;SDS011;72082;52.650;8.116;2023-08-20T03:55:54;1.97;;;1.87;;
29534;SDS011;72082;52.650;8.116;2023-08-20T03:58:19;6.40;;;2.30;;
29534;SDS011;72082;52.650;8.116;2023-08-20T04:00:44;1.80;;;1.70;;
29534;SDS011;72082;52.650;8.116;2023-08-20T04:03:09;2.80;;;2.50;;
29534;SDS011;72082;52.650;8.116;2023-08-20T04:05:35;13.63;;;3.60;;
29534;SDS011;72082;52.650;8.116;2023-08-20T04:08:04;1.80;;;1.57;;
29534;SDS011;72082;52.650;8.116;2023-08-20T04:10:29;1.97;;;1.87;;
29534;SDS011;72082;52.650;8.116;2023-08-20T04:12:55;2.00;;;1.70;;
29534;SDS011;72082;52.650;8.116;2023-08-20T04:15:20;1.67;;;1.60;;
29534;SDS011;72082;52.650;8.116;2023-08-20T04:17:45;3.63;;;2.90;;
29534;SDS011;72082;52.650;8.116;2023-08-20T04:20:10;2.20;;;2.10;;
29534;SDS011;72082;52.650;8.116;2023-08-20T04:22:36;3.03;;;2.67;;
29534;SDS011;72082;52.650;8.116;2023-08-20T04:25:01;3.37;;;2.90;;
29534;SDS011;72082;52.650;8.116;2023-08-20T04:27:26;2.37;;;2.20;;
29534;SDS011;72082;52.650;8.116;2023-08-20T04:29:51;2.20;;;2.10;;
29534;SDS011;72082;52.650;8.116;2023-08-20T04:32:17;3.00;;;2.80;;
29534;SDS011;72082;52.650;8.116;2023-08-20T04:34:42;13.70;;;3.83;;
29534;SDS011;72082;52.650;8.116;2023-08-20T04:37:07;8.47;;;3.30;;
29534;SDS011;72082;52.650;8.116;2023-08-20T04:39:32;2.77;;;2.50;;
29534;SDS011;72082;52.650;8.116;2023-08-20T04:41:57;6.27;;;3.37;;
29534;SDS011;72082;52.650;8.116;2023-08-20T04:44:23;10.33;;;3.23;;
29534;SDS011;72082;52.650;8.116;2023-08-20T04:46:48;2.70;;;2.20;;
29534;SDS011;72082;52.650;8.116;2023-08-20T04:49:13;1.93;;;1.83;;
29534;SDS011;72082;52.650;8.116;2023-08-20T04:51:38;8.73;;;2.70;;
29534;SDS011;72082;52.650;8.116;2023-08-20T04:54:03;12.67;;;2.23;;
29534;SDS011;72082;52.650;8.116;2023-08-20T04:56:29;3.33;;;2.37;;
29534;SDS011;72082;52.650;8.116;2023-08-20T04:58:54;5.60;;;2.50;;
29534;SDS011;72082;52.650;8.116;2023-08-20T05:01:19;5.80;;;2.53;;
29534;SDS011;72082;52.650;8.116;2023-08-20T05:03:44;2.40;;;2.20;;
29534;SDS011;72082;52.650;8.116;2023-08-20T05:06:09;3.27;;;3.00;;
29534;SDS011;72082;52.650;8.116;2023-08-20T05:08:35;9.13;;;3.00;;
29534;SDS011;72082;52.650;8.116;2023-08-20T05:11:00;2.83;;;2.57;;
29534;SDS011;72082;52.650;8.116;2023-08-20T05:13:25;4.73;;;2.73;;
29534;SDS011;72082;52.650;8.116;2023-08-20T05:15:50;8.17;;;3.50;;
29534;SDS011;72082;52.650;8.116;2023-08-20T05:18:15;2.73;;;2.60;;
29534;SDS011;72082;52.650;8.116;2023-08-20T05:20:41;2.50;;;2.40;;
29534;SDS011;72082;52.650;8.116;2023-08-20T05:23:06;3.37;;;3.17;;
29534;SDS011;72082;52.650;8.116;2023-08-20T05:25:31;2.80;;;2.60;;
29534;SDS011;72082;52.650;8.116;2023-08-20T05:27:56;2.10;;;2.00;;
29534;SDS011;72082;52.650;8.116;2023-08-20T05:30:22;3.70;;;2.20;;
29534;SDS011;72082;52.650;8.116;2023-08-20T05:32:47;7.83;;;2.50;;
29534;SDS011;72082;52.650;8.116;2023-08-20T05:35:12;23.53;;;6.00;;
29534;SDS011;72082;52.650;8.116;2023-08-20T05:37:37;16.53;;;3.97;;
29534;SDS011;72082;52.650;8.116;2023-08-20T05:40:03;4.13;;;3.73;;
29534;SDS011;72082;52.650;8.116;2023-08-20T05:42:28;6.07;;;2.87;;
29534;SDS011;72082;52.650;8.116;2023-08-20T05:44:53;3.73;;;2.87;;
29534;SDS011;72082;52.650;8.116;2023-08-20T05:47:18;10.00;;;4.70;;
29534;SDS011;72082;52.650;8.116;2023-08-20T05:49:44;3.80;;;3.50;;
29534;SDS011;72082;52.650;8.116;2023-08-20T05:52:09;2.27;;;2.13;;
29534;SDS011;72082;52.650;8.116;2023-08-20T05:54:34;4.03;;;3.73;;
29534;SDS011;72082;52.650;8.116;2023-08-20T05:56:59;9.57;;;3.90;;
29534;SDS011;72082;52.650;8.116;2023-08-20T05:59:25;7.53;;;4.00;;
29534;SDS011;72082;52.650;8.116;2023-08-20T06:01:50;4.90;;;2.80;;
29534;SDS011;72082;52.650;8.116;2023-08-20T06:04:15;27.73;;;4.03;;
29534;SDS011;72082;52.650;8.116;2023-08-20T06:06:40;9.13;;;3.70;;
29534;SDS011;72082;52.650;8.116;2023-08-20T06:09:05;6.53;;;4.30;;
29534;SDS011;72082;52.650;8.116;2023-08-20T06:11:31;5.43;;;3.37;;
29534;SDS011;72082;52.650;8.116;2023-08-20T06:13:56;4.80;;;3.73;;
29534;SDS011;72082;52.650;8.116;2023-08-20T06:16:21;3.50;;;3.20;;
29534;SDS011;72082;52.650;8.116;2023-08-20T06:18:47;15.63;;;4.60;;
29534;SDS011;72082;52.650;8.116;2023-08-20T06:21:12;10.83;;;4.57;;
29534;SDS011;72082;52.650;8.116;2023-08-20T06:23:37;14.07;;;3.33;;
29534;SDS011;72082;52.650;8.116;2023-08-20T06:26:02;7.70;;;3.73;;
29534;SDS011;72082;52.650;8.116;2023-08-20T06:28:28;21.03;;;3.70;;
29534;SDS011;72082;52.650;8.116;2023-08-20T06:30:54;5.57;;;3.33;;
29534;SDS011;72082;52.650;8.116;2023-08-20T06:33:19;4.17;;;2.77;;
29534;SDS011;72082;52.650;8.116;2023-08-20T06:35:44;9.20;;;4.00;;
29534;SDS011;72082;52.650;8.116;2023-08-20T06:38:09;4.60;;;3.47;;
29534;SDS011;72082;52.650;8.116;2023-08-20T06:40:34;4.47;;;4.03;;
29534;SDS011;72082;52.650;8.116;2023-08-20T06:43:00;5.77;;;2.93;;
29534;SDS011;72082;52.650;8.116;2023-08-20T06:45:25;18.00;;;4.07;;
29534;SDS011;72082;52.650;8.116;2023-08-20T06:47:50;4.50;;;2.87;;
29534;SDS011;72082;52.650;8.116;2023-08-20T06:50:18;4.20;;;3.80;;
29534;SDS011;72082;52.650;8.116;2023-08-20T06:52:43;10.40;;;4.70;;
29534;SDS011;72082;52.650;8.116;2023-08-20T06:55:08;11.93;;;5.20;;
29534;SDS011;72082;52.650;8.116;2023-08-20T06:57:34;3.43;;;3.13;;
29534;SDS011;72082;52.650;8.116;2023-08-20T06:59:59;8.00;;;4.10;;
29534;SDS011;72082;52.650;8.116;2023-08-20T07:02:24;13.93;;;4.80;;
29534;SDS011;72082;52.650;8.116;2023-08-20T07:04:49;9.03;;;4.20;;
29534;SDS011;72082;52.650;8.116;2023-08-20T07:07:15;5.87;;;3.43;;
29534;SDS011;72082;52.650;8.116;2023-08-20T07:09:40;6.03;;;3.97;;
29534;SDS011;72082;52.650;8.116;2023-08-20T07:12:05;39.00;;;4.53;;
29534;SDS011;72082;52.650;8.116;2023-08-20T07:14:31;5.13;;;4.00;;
29534;SDS011;72082;52.650;8.116;2023-08-20T07:16:56;9.37;;;4.63;;
29534;SDS011;72082;52.650;8.116;2023-08-20T07:19:21;28.70;;;5.20;;
29534;SDS011;72082;52.650;8.116;2023-08-20T07:21:47;8.00;;;4.57;;
29534;SDS011;72082;52.650;8.116;2023-08-20T07:24:12;5.40;;;3.57;;
29534;SDS011;72082;52.650;8.116;2023-08-20T07:26:37;20.40;;;4.20;;
29534;SDS011;72082;52.650;8.116;2023-08-20T07:29:03;24.43;;;5.57;;
29534;SDS011;72082;52.650;8.116;2023-08-20T07:31:29;8.67;;;5.70;;
29534;SDS011;72082;52.650;8.116;2023-08-20T07:33:55;15.10;;;6.20;;
29534;SDS011;72082;52.650;8.116;2023-08-20T07:36:22;7.73;;;4.97;;
29534;SDS011;72082;52.650;8.116;2023-08-20T07:38:48;5.47;;;3.90;;
29534;SDS011;72082;52.650;8.116;2023-08-20T07:41:14;7.97;;;4.60;;
29534;SDS011;72082;52.650;8.116;2023-08-20T07:43:40;5.03;;;4.50;;
29534;SDS011;72082;52.650;8.116;2023-08-20T07:46:06;12.70;;;5.00;;
29534;SDS011;72082;52.650;8.116;2023-08-20T07:48:32;9.33;;;6.20;;
29534;SDS011;72082;52.650;8.116;2023-08-20T07:50:58;8.23;;;5.23;;
29534;SDS011;72082;52.650;8.116;2023-08-20T07:53:23;11.33;;;4.43;;
29534;SDS011;72082;52.650;8.116;2023-08-20T07:55:48;11.30;;;4.23;;
29534;SDS011;72082;52.650;8.116;2023-08-20T07:58:14;4.03;;;3.60;;
29534;SDS011;72082;52.650;8.116;2023-08-20T08:00:39;11.87;;;5.40;;
29534;SDS011;72082;52.650;8.116;2023-08-20T08:03:04;21.43;;;5.37;;
29534;SDS011;72082;52.650;8.116;2023-08-20T08:05:29;5.97;;;4.30;;
29534;SDS011;72082;52.650;8.116;2023-08-20T08:07:54;9.60;;;5.70;;
29534;SDS011;72082;52.650;8.116;2023-08-20T08:10:20;11.60;;;4.87;;
29534;SDS011;72082;52.650;8.116;2023-08-20T08:12:45;9.80;;;5.63;;
29534;SDS011;72082;52.650;8.116;2023-08-20T08:15:10;25.83;;;5.43;;
29534;SDS011;72082;52.650;8.116;2023-08-20T08:17:37;7.70;;;5.27;;
29534;SDS011;72082;52.650;8.116;2023-08-20T08:20:02;9.07;;;4.93;;
29534;SDS011;72082;52.650;8.116;2023-08-20T08:22:28;7.97;;;3.97;;
29534;SDS011;72082;52.650;8.116;2023-08-20T08:24:53;4.80;;;4.20;;
29534;SDS011;72082;52.650;8.116;2023-08-20T08:27:20;8.30;;;3.73;;
29534;SDS011;72082;52.650;8.116;2023-08-20T08:29:45;7.47;;;3.50;;
29534;SDS011;72082;52.650;8.116;2023-08-20T08:32:10;4.80;;;3.83;;
29534;SDS011;72082;52.650;8.116;2023-08-20T08:34:35;6.90;;;4.13;;
29534;SDS011;72082;52.650;8.116;2023-08-20T08:37:01;5.20;;;4.70;;
29534;SDS011;72082;52.650;8.116;2023-08-20T08:39:26;4.70;;;4.30;;
29534;SDS011;72082;52.650;8.116;2023-08-20T08:41:51;14.47;;;5.57;;
29534;SDS011;72082;52.650;8.116;2023-08-20T08:44:22;10.30;;;5.00;;
29534;SDS011;72082;52.650;8.116;2023-08-20T08:46:48;21.10;;;4.67;;
29534;SDS011;72082;52.650;8.116;2023-08-20T08:49:14;7.43;;;4.93;;
29534;SDS011;72082;52.650;8.116;2023-08-20T08:51:40;3.93;;;3.53;;
29534;SDS011;72082;52.650;8.116;2023-08-20T08:54:09;5.47;;;4.07;;
29534;SDS011;72082;52.650;8.116;2023-08-20T08:56:34;18.00;;;4.67;;
29534;SDS011;72082;52.650;8.116;2023-08-20T08:59:00;7.30;;;4.30;;
29534;SDS011;72082;52.650;8.116;2023-08-20T09:01:25;5.97;;;4.23;;
29534;SDS011;72082;52.650;8.116;2023-08-20T09:03:51;4.13;;;3.60;;
29534;SDS011;72082;52.650;8.116;2023-08-20T09:06:16;18.83;;;4.00;;
29534;SDS011;72082;52.650;8.116;2023-08-20T09:08:42;4.10;;;3.80;;
29534;SDS011;72082;52.650;8.116;2023-08-20T09:11:08;3.47;;;3.20;;
29534;SDS011;72082;52.650;8.116;2023-08-20T09:13:41;3.30;;;3.10;;
29534;SDS011;72082;52.650;8.116;2023-08-20T09:16:08;7.27;;;3.80;;
29534;SDS011;72082;52.650;8.116;2023-08-20T09:21:08;3.60;;;3.30;;
29534;SDS011;72082;52.650;8.116;2023-08-20T09:23:34;11.63;;;3.13;;
29534;SDS011;72082;52.650;8.116;2023-08-20T09:26:03;7.30;;;4.07;;
29534;SDS011;72082;52.650;8.116;2023-08-20T09:28:44;4.07;;;3.47;;
29534;SDS011;72082;52.650;8.116;2023-08-20T09:31:10;9.70;;;4.60;;
29534;SDS011;72082;52.650;8.116;2023-08-20T09:33:36;16.30;;;4.13;;
29534;SDS011;72082;52.650;8.116;2023-08-20T09:36:02;5.87;;;3.60;;
29534;SDS011;72082;52.650;8.116;2023-08-20T09:38:28;11.77;;;3.93;;
29534;SDS011;72082;52.650;8.116;2023-08-20T09:40:54;7.10;;;3.80;;
29534;SDS011;72082;52.650;8.116;2023-08-20T09:43:23;7.47;;;4.30;;
29534;SDS011;72082;52.650;8.116;2023-08-20T09:45:55;8.90;;;3.70;;
29534;SDS011;72082;52.650;8.116;2023-08-20T09:48:23;5.50;;;3.73;;
29534;SDS011;72082;52.650;8.116;2023-08-20T09:50:52;6.70;;;4.30;;
29534;SDS011;72082;52.650;8.116;2023-08-20T09:53:27;4.40;;;3.77;;
29534;SDS011;72082;52.650;8.116;2023-08-20T09:56:27;6.57;;;4.27;;
29534;SDS011;72082;52.650;8.116;2023-08-20T09:58:53;12.73;;;4.40;;
29534;SDS011;72082;52.650;8.116;2023-08-20T10:01:19;4.20;;;3.50;;
29534;SDS011;72082;52.650;8.116;2023-08-20T10:03:45;6.60;;;3.17;;
29534;SDS011;72082;52.650;8.116;2023-08-20T10:06:10;3.33;;;2.87;;
29534;SDS011;72082;52.650;8.116;2023-08-20T10:08:36;4.10;;;3.37;;
29534;SDS011;72082;52.650;8.116;2023-08-20T10:11:01;7.63;;;4.37;;
29534;SDS011;72082;52.650;8.116;2023-08-20T10:13:27;5.70;;;4.90;;
29534;SDS011;72082;52.650;8.116;2023-08-20T10:15:52;9.50;;;4.00;;
29534;SDS011;72082;52.650;8.116;2023-08-20T10:18:21;8.73;;;3.40;;
29534;SDS011;72082;52.650;8.116;2023-08-20T10:20:46;6.87;;;3.27;;
29534;SDS011;72082;52.650;8.116;2023-08-20T10:23:14;7.50;;;3.70;;
29534;SDS011;72082;52.650;8.116;2023-08-20T10:25:40;3.50;;;3.13;;
29534;SDS011;72082;52.650;8.116;2023-08-20T10:33:28;3.03;;;2.83;;
29534;SDS011;72082;52.650;8.116;2023-08-20T10:35:53;6.30;;;3.30;;
29534;SDS011;72082;52.650;8.116;2023-08-20T10:38:18;6.03;;;3.80;;
29534;SDS011;72082;52.650;8.116;2023-08-20T10:40:53;19.33;;;4.23;;
29534;SDS011;72082;52.650;8.116;2023-08-20T10:48:34;4.13;;;3.63;;
29534;SDS011;72082;52.650;8.116;2023-08-20T10:53:37;13.10;;;2.90;;
29534;SDS011;72082;52.650;8.116;2023-08-20T10:58:33;5.37;;;2.70;;
29534;SDS011;72082;52.650;8.116;2023-08-20T11:01:32;8.10;;;3.70;;
29534;SDS011;72082;52.650;8.116;2023-08-20T11:03:50;4.60;;;3.53;;
29534;SDS011;72082;52.650;8.116;2023-08-20T11:06:16;10.17;;;2.60;;
29534;SDS011;72082;52.650;8.116;2023-08-20T11:08:42;14.13;;;3.50;;
29534;SDS011;72082;52.650;8.116;2023-08-20T11:11:08;12.03;;;3.53;;
29534;SDS011;72082;52.650;8.116;2023-08-20T11:13:35;2.60;;;2.40;;
29534;SDS011;72082;52.650;8.116;2023-08-20T11:16:01;12.97;;;2.50;;
29534;SDS011;72082;52.650;8.116;2023-08-20T11:18:27;5.97;;;2.63;;
29534;SDS011;72082;52.650;8.116;2023-08-20T11:20:53;15.10;;;2.17;;
29534;SDS011;72082;52.650;8.116;2023-08-20T11:23:19;6.87;;;3.53;;
29534;SDS011;72082;52.650;8.116;2023-08-20T11:25:44;3.33;;;2.20;;
29534;SDS011;72082;52.650;8.116;2023-08-20T11:28:10;5.53;;;2.60;;
29534;SDS011;72082;52.650;8.116;2023-08-20T11:30:35;9.67;;;2.77;;
29534;SDS011;72082;52.650;8.116;2023-08-20T11:33:00;5.67;;;3.00;;
29534;SDS011;72082;52.650;8.116;2023-08-20T11:35:26;5.53;;;2.33;;
29534;SDS011;72082;52.650;8.116;2023-08-20T11:37:54;5.07;;;2.60;;
29534;SDS011;72082;52.650;8.116;2023-08-20T11:40:20;13.80;;;3.53;;
29534;SDS011;72082;52.650;8.116;2023-08-20T11:42:46;2.63;;;2.43;;
29534;SDS011;72082;52.650;8.116;2023-08-20T11:45:12;5.37;;;2.60;;
29534;SDS011;72082;52.650;8.116;2023-08-20T11:47:40;2.10;;;2.00;;
29534;SDS011;72082;52.650;8.116;2023-08-20T11:50:06;4.37;;;2.13;;
29534;SDS011;72082;52.650;8.116;2023-08-20T11:52:33;1.63;;;1.53;;
29534;SDS011;72082;52.650;8.116;2023-08-20T11:54:59;2.77;;;2.03;;
29534;SDS011;72082;52.650;8.116;2023-08-20T11:57:25;8.03;;;2.40;;
29534;SDS011;72082;52.650;8.116;2023-08-20T11:59:50;4.27;;;1.63;;
29534;SDS011;72082;52.650;8.116;2023-08-20T12:02:15;3.93;;;2.63;;
29534;SDS011;72082;52.650;8.116;2023-08-20T12:04:50;4.27;;;1.90;;
29534;SDS011;72082;52.650;8.116;2023-08-20T12:07:15;3.50;;;2.10;;
29534;SDS011;72082;52.650;8.116;2023-08-20T12:09:41;5.20;;;2.70;;
29534;SDS011;72082;52.650;8.116;2023-08-20T12:12:07;6.30;;;2.67;;
29534;SDS011;72082;52.650;8.116;2023-08-20T12:14:33;2.70;;;2.20;;
29534;SDS011;72082;52.650;8.116;2023-08-20T12:16:59;3.63;;;2.70;;
29534;SDS011;72082;52.650;8.116;2023-08-20T12:19:25;3.00;;;1.97;;
29534;SDS011;72082;52.650;8.116;2023-08-20T12:21:50;4.80;;;2.00;;
29534;SDS011;72082;52.650;8.116;2023-08-20T12:24:16;7.83;;;2.30;;
29534;SDS011;72082;52.650;8.116;2023-08-20T12:26:41;5.90;;;2.47;;
29534;SDS011;72082;52.650;8.116;2023-08-20T12:29:07;5.40;;;2.63;;
29534;SDS011;72082;52.650;8.116;2023-08-20T12:31:33;5.27;;;2.40;;
29534;SDS011;72082;52.650;8.116;2023-08-20T12:33:59;7.33;;;2.30;;
29534;SDS011;72082;52.650;8.116;2023-08-20T12:36:24;7.27;;;2.50;;
29534;SDS011;72082;52.650;8.116;2023-08-20T12:38:50;3.30;;;1.67;;
29534;SDS011;72082;52.650;8.116;2023-08-20T12:41:15;1.77;;;1.50;;
29534;SDS011;72082;52.650;8.116;2023-08-20T12:43:40;1.53;;;1.43;;
29534;SDS011;72082;52.650;8.116;2023-08-20T12:46:06;9.83;;;2.20;;
29534;SDS011;72082;52.650;8.116;2023-08-20T12:48:31;4.50;;;1.60;;
29534;SDS011;72082;52.650;8.116;2023-08-20T12:50:56;1.77;;;1.67;;
29534;SDS011;72082;52.650;8.116;2023-08-20T12:53:22;14.53;;;3.30;;
29534;SDS011;72082;52.650;8.116;2023-08-20T12:55:47;88.20;;;2.70;;
29534;SDS011;72082;52.650;8.116;2023-08-20T12:58:12;3.10;;;1.47;;
29534;SDS011;72082;52.650;8.116;2023-08-20T13:00:38;2.17;;;1.97;;
29534;SDS011;72082;52.650;8.116;2023-08-20T13:03:03;2.00;;;1.90;;
29534;SDS011;72082;52.650;8.116;2023-08-20T13:05:31;1.60;;;1.50;;
29534;SDS011;72082;52.650;8.116;2023-08-20T13:07:57;2.97;;;1.63;;
29534;SDS011;72082;52.650;8.116;2023-08-20T13:10:23;2.67;;;1.97;;
29534;SDS011;72082;52.650;8.116;2023-08-20T13:12:50;2.57;;;1.77;;
29534;SDS011;72082;52.650;8.116;2023-08-20T13:15:17;1.30;;;1.30;;
29534;SDS011;72082;52.650;8.116;2023-08-20T13:17:43;1.50;;;1.40;;
29534;SDS011;72082;52.650;8.116;2023-08-20T13:20:10;1.77;;;1.67;;
29534;SDS011;72082;52.650;8.116;2023-08-20T13:22:36;9.53;;;1.37;;
29534;SDS011;72082;52.650;8.116;2023-08-20T13:25:01;5.77;;;1.40;;
29534;SDS011;72082;52.650;8.116;2023-08-20T13:27:26;1.70;;;1.60;;
29534;SDS011;72082;52.650;8.116;2023-08-20T13:29:51;1.13;;;1.10;;
29534;SDS011;72082;52.650;8.116;2023-08-20T13:32:17;2.80;;;2.53;;
29534;SDS011;72082;52.650;8.116;2023-08-20T13:34:42;1.77;;;1.63;;
29534;SDS011;72082;52.650;8.116;2023-08-20T13:37:07;8.50;;;2.43;;
29534;SDS011;72082;52.650;8.116;2023-08-20T13:39:32;4.43;;;1.93;;
29534;SDS011;72082;52.650;8.116;2023-08-20T13:41:57;4.27;;;2.00;;
29534;SDS011;72082;52.650;8.116;2023-08-20T13:44:23;1.93;;;1.70;;
29534;SDS011;72082;52.650;8.116;2023-08-20T13:46:48;2.93;;;1.60;;
29534;SDS011;72082;52.650;8.116;2023-08-20T13:49:13;2.00;;;1.73;;
29534;SDS011;72082;52.650;8.116;2023-08-20T13:51:38;1.60;;;1.50;;
29534;SDS011;72082;52.650;8.116;2023-08-20T13:54:04;7.17;;;1.90;;
29534;SDS011;72082;52.650;8.116;2023-08-20T13:56:29;4.23;;;1.87;;
29534;SDS011;72082;52.650;8.116;2023-08-20T13:58:54;1.90;;;1.60;;
29534;SDS011;72082;52.650;8.116;2023-08-20T14:01:20;3.23;;;1.50;;
29534;SDS011;72082;52.650;8.116;2023-08-20T14:03:45;4.43;;;1.97;;
29534;SDS011;72082;52.650;8.116;2023-08-20T14:06:10;1.60;;;1.50;;
29534;SDS011;72082;52.650;8.116;2023-08-20T14:08:35;1.00;;;1.00;;
29534;SDS011;72082;52.650;8.116;2023-08-20T14:11:01;1.40;;;1.30;;
29534;SDS011;72082;52.650;8.116;2023-08-20T14:13:26;3.87;;;2.50;;
29534;SDS011;72082;52.650;8.116;2023-08-20T14:15:51;1.40;;;1.30;;
29534;SDS011;72082;52.650;8.116;2023-08-20T14:18:17;1.23;;;1.23;;
29534;SDS011;72082;52.650;8.116;2023-08-20T14:20:43;1.00;;;1.00;;
29534;SDS011;72082;52.650;8.116;2023-08-20T14:23:08;4.43;;;1.60;;
29534;SDS011;72082;52.650;8.116;2023-08-20T14:25:33;7.40;;;2.50;;
29534;SDS011;72082;52.650;8.116;2023-08-20T14:27:58;2.30;;;1.30;;
29534;SDS011;72082;52.650;8.116;2023-08-20T14:30:24;1.07;;;1.07;;
29534;SDS011;72082;52.650;8.116;2023-08-20T14:32:49;4.67;;;2.23;;
29534;SDS011;72082;52.650;8.116;2023-08-20T14:35:14;1.53;;;1.37;;
29534;SDS011;72082;52.650;8.116;2023-08-20T14:37:39;1.43;;;1.33;;
29534;SDS011;72082;52.650;8.116;2023-08-20T14:40:05;1.43;;;1.33;;
29534;SDS011;72082;52.650;8.116;2023-08-20T14:42:30;9.73;;;1.63;;
29534;SDS011;72082;52.650;8.116;2023-08-20T14:44:56;2.00;;;1.57;;
29534;SDS011;72082;52.650;8.116;2023-08-20T14:47:21;1.70;;;1.00;;
29534;SDS011;72082;52.650;8.116;2023-08-20T14:49:46;15.23;;;1.73;;
29534;SDS011;72082;52.650;8.116;2023-08-20T14:52:11;2.60;;;1.00;;
29534;SDS011;72082;52.650;8.116;2023-08-20T14:54:37;2.13;;;1.23;;
29534;SDS011;72082;52.650;8.116;2023-08-20T14:57:02;1.47;;;1.30;;
29534;SDS011;72082;52.650;8.116;2023-08-20T14:59:27;2.27;;;1.10;;
29534;SDS011;72082;52.650;8.116;2023-08-20T15:01:52;4.87;;;2.07;;